Terminal Aerodrome Forecast
Issued by NWS Charleston, WV

Current Version | Previous Version | Text Only | Print | Product List | Glossary Off
Versions: 1 2 3 4 5 6 7 8 9 10 11 12 13 14 15 16 17 18 19 20 21 22 23

231
FTUS41 KRLX 281148
TAFPKB
TAF
KPKB 281148Z 2812/2912 19005KT P6SM BKN015
     FM281400 22006KT P6SM BKN025
     FM281600 24007KT P6SM VCSH BKN025
     FM281900 25007KT P6SM VCTS BKN035CB
     FM282300 29005KT 6SM BR BKN035
     FM290300 VRB03KT 4SM BR BKN016=

USA.gov is the U.S. government's official web portal to all federal, state and local government web resources and services.